Time;durP1;ratioP1;P1;durP2;ratioP2;P2;SDS_P1;SDS_P2;PMS_P1;PMS_P2;Temp;Humidity;BMP_temperature;BMP_pressure;BME280_temperature;BME280_humidity;BME280_pressure;Samples;Min_cycle;Max_cycle;Signal;HPM_P1;HPM_P2
2022/07/18 00:01:58;;;;;;;11.95;3.25;;;;;;;19.53;45.74;101956.88;5092984;28;20409;-61
2022/07/18 00:04:26;;;;;;;8.95;2.80;;;;;;;19.56;45.25;101963.75;5092449;28;20052;-61
2022/07/18 00:06:53;;;;;;;14.25;4.00;;;;;;;19.50;45.91;101964.47;5092951;28;20441;-60
2022/07/18 00:09:22;;;;;;;9.02;2.58;;;;;;;19.41;45.97;101962.88;5093350;28;20494;-59
2022/07/18 00:11:50;;;;;;;10.95;3.50;;;;;;;19.40;45.73;101959.38;5093208;28;20127;-63
2022/07/18 00:14:18;;;;;;;10.00;3.17;;;;;;;19.35;45.97;101957.22;5093089;28;20044;-60
2022/07/18 00:16:45;;;;;;;9.93;3.08;;;;;;;19.33;46.31;101961.94;5092738;28;20047;-61
2022/07/18 00:19:12;;;;;;;13.68;2.90;;;;;;;19.24;45.99;101954.16;5093087;28;20040;-60
2022/07/18 00:21:39;;;;;;;9.55;2.97;;;;;;;19.23;46.57;101958.69;5092941;28;20042;-61
2022/07/18 00:24:05;;;;;;;10.13;3.40;;;;;;;19.12;47.37;101959.13;5091649;28;20101;-60
2022/07/18 00:26:32;;;;;;;11.57;3.25;;;;;;;19.10;47.70;101953.06;5093109;28;20044;-59
2022/07/18 00:28:59;;;;;;;14.63;3.22;;;;;;;19.01;47.44;101954.16;4957920;28;20048;-59
2022/07/18 00:31:27;;;;;;;12.48;4.13;;;;;;;18.97;47.91;101956.38;5092990;28;20048;-60
2022/07/18 00:33:54;;;;;;;11.55;4.13;;;;;;;18.91;47.61;101955.25;5091968;28;20056;-59
2022/07/18 00:36:20;;;;;;;13.38;3.72;;;;;;;18.88;47.89;101954.75;5092792;28;20048;-60
2022/07/18 00:38:48;;;;;;;12.00;3.28;;;;;;;18.88;48.60;101958.31;5092967;28;20060;-59
2022/07/18 00:41:15;;;;;;;11.00;3.10;;;;;;;18.79;48.00;101953.94;5095636;28;20097;-59
2022/07/18 00:43:43;;;;;;;10.10;2.80;;;;;;;18.80;48.58;101958.31;5096564;28;20044;-59
2022/07/18 00:46:11;;;;;;;10.55;2.95;;;;;;;18.74;48.83;101954.50;5096490;28;20043;-58
2022/07/18 00:48:40;;;;;;;10.13;3.00;;;;;;;18.69;49.51;101948.00;5096557;28;20504;-58
2022/07/18 00:51:07;;;;;;;10.85;3.20;;;;;;;18.64;49.37;101939.63;5096354;28;20043;-59
2022/07/18 00:53:35;;;;;;;10.98;4.10;;;;;;;18.54;49.63;101937.19;5096119;28;20056;-59
2022/07/18 00:56:03;;;;;;;10.50;3.33;;;;;;;18.60;49.36;101936.47;5096371;28;20051;-59
2022/07/18 00:58:30;;;;;;;13.40;4.72;;;;;;;18.58;49.61;101933.94;5096358;28;20485;-58
2022/07/18 01:03:44;;;;;;;14.07;4.15;;;;;;;18.53;49.86;101935.50;5095943;28;20072;-59
2022/07/18 01:06:11;;;;;;;15.15;4.75;;;;;;;18.52;49.94;101936.50;5096154;28;20126;-59
2022/07/18 01:08:41;;;;;;;11.27;3.53;;;;;;;18.53;50.93;101938.19;5095712;28;20036;-59
2022/07/18 01:11:08;;;;;;;10.55;4.18;;;;;;;18.50;51.24;101928.63;5095773;28;20051;-59
2022/07/18 01:13:36;;;;;;;11.30;4.10;;;;;;;18.50;51.44;101928.63;5095886;28;20052;-59
2022/07/18 01:16:03;;;;;;;13.40;4.03;;;;;;;18.48;51.19;101921.75;5095813;28;20060;-60
2022/07/18 01:18:30;;;;;;;12.00;3.42;;;;;;;18.55;50.40;101922.72;5095683;28;20115;-60
2022/07/18 01:20:56;;;;;;;11.52;4.20;;;;;;;18.51;49.75;101927.59;5096311;28;20044;-60
2022/07/18 01:23:23;;;;;;;13.15;4.20;;;;;;;18.50;50.72;101927.78;5095501;28;20101;-59
2022/07/18 01:25:50;;;;;;;15.23;4.63;;;;;;;18.46;50.32;101935.34;5095586;28;20394;-60
2022/07/18 01:28:17;;;;;;;10.60;4.00;;;;;;;18.43;51.24;101943.78;5095415;28;20405;-59
2022/07/18 01:30:43;;;;;;;16.63;4.50;;;;;;;18.37;51.92;101933.72;5095559;28;20051;-59
2022/07/18 01:33:11;;;;;;;15.95;4.20;;;;;;;18.35;52.83;101927.72;5094423;28;20101;-59
2022/07/18 01:35:38;;;;;;;12.30;4.50;;;;;;;18.33;52.87;101927.88;5095188;28;20036;-59
2022/07/18 01:38:04;;;;;;;16.70;4.82;;;;;;;18.28;52.32;101932.09;5095632;28;20052;-59
2022/07/18 01:40:31;;;;;;;9.60;3.65;;;;;;;18.26;51.72;101926.09;5095469;28;20052;-59
2022/07/18 01:42:58;;;;;;;15.75;5.28;;;;;;;18.26;51.24;101928.78;5095353;28;20106;-59
2022/07/18 01:45:25;;;;;;;14.43;4.03;;;;;;;18.26;52.26;101931.44;5095411;28;20090;-60
2022/07/18 01:47:53;;;;;;;13.13;4.00;;;;;;;18.27;52.25;101933.97;5095415;28;20443;-61
2022/07/18 01:50:19;;;;;;;13.82;4.22;;;;;;;18.20;51.65;101933.00;5095234;28;20077;-59
2022/07/18 01:52:47;;;;;;;13.00;4.32;;;;;;;18.20;51.52;101924.94;5095119;28;20117;-60
2022/07/18 01:55:14;;;;;;;13.77;4.90;;;;;;;18.20;50.90;101931.13;5095339;28;20070;-60
2022/07/18 01:57:40;;;;;;;15.82;4.53;;;;;;;18.22;51.42;101939.03;5093896;28;20044;-59
2022/07/18 02:00:09;;;;;;;11.52;3.78;;;;;;;18.25;52.38;101930.63;5095253;28;20052;-59
2022/07/18 02:02:37;;;;;;;12.05;3.72;;;;;;;18.25;51.23;101936.00;5095007;28;20040;-60
2022/07/18 02:05:05;;;;;;;14.90;3.88;;;;;;;18.26;51.36;101928.78;5094425;28;20093;-60
2022/07/18 02:07:35;;;;;;;14.88;4.25;;;;;;;18.22;51.28;101928.28;5094927;28;20049;-60
2022/07/18 02:10:20;;;;;;;11.60;3.42;;;;;;;18.23;50.90;101930.78;5095061;28;20052;-60
2022/07/18 02:12:47;;;;;;;13.43;3.50;;;;;;;18.19;51.41;101932.16;5093220;28;20040;-60
2022/07/18 02:15:15;;;;;;;11.57;4.05;;;;;;;18.21;50.80;101924.78;5094826;28;20047;-60
2022/07/18 02:17:42;;;;;;;14.85;4.30;;;;;;;18.23;50.62;101927.28;5094808;28;20040;-60
2022/07/18 02:20:12;;;;;;;13.07;4.47;;;;;;;18.24;51.02;101923.56;5094507;28;20447;-61
2022/07/18 02:22:39;;;;;;;14.80;3.83;;;;;;;18.22;50.72;101920.22;5094636;28;20040;-60
2022/07/18 02:25:06;;;;;;;12.48;4.40;;;;;;;18.27;50.33;101922.41;5094906;28;20093;-60
2022/07/18 02:27:33;;;;;;;8.93;3.47;;;;;;;18.26;50.87;101913.47;5094310;28;20121;-61
2022/07/18 02:30:00;;;;;;;14.77;4.35;;;;;;;18.27;50.64;101925.09;5094327;28;20444;-61
2022/07/18 02:32:27;;;;;;;11.50;4.18;;;;;;;18.21;50.43;101921.25;5093481;28;20048;-59
2022/07/18 02:34:54;;;;;;;12.00;3.75;;;;;;;18.18;50.29;101911.69;5094305;28;20048;-61
2022/07/18 02:37:21;;;;;;;12.15;3.88;;;;;;;18.13;50.63;101908.69;5094350;28;20050;-61
2022/07/18 02:39:47;;;;;;;12.00;4.10;;;;;;;18.13;50.52;101910.53;5094299;28;20101;-61
2022/07/18 02:42:14;;;;;;;11.50;3.55;;;;;;;18.09;51.54;101917.28;5093228;28;20139;-60
2022/07/18 02:44:41;;;;;;;13.32;4.13;;;;;;;18.09;51.68;101904.69;5094066;28;20520;-61
2022/07/18 02:47:08;;;;;;;11.55;3.97;;;;;;;18.10;52.00;101919.78;5094231;28;20040;-60
2022/07/18 02:49:34;;;;;;;10.98;3.40;;;;;;;18.08;51.75;101919.13;5093760;28;20086;-60
2022/07/18 02:52:04;;;;;;;12.00;3.45;;;;;;;18.11;51.62;101920.63;5092856;28;20056;-60
2022/07/18 02:54:33;;;;;;;14.73;3.63;;;;;;;18.02;51.91;101917.97;5093992;28;20044;-63
2022/07/18 02:57:00;;;;;;;9.63;3.28;;;;;;;18.00;52.13;101917.31;5093737;28;20486;-60
2022/07/18 02:59:27;;;;;;;17.98;3.42;;;;;;;17.94;51.56;101915.31;5093721;28;20063;-60
2022/07/18 03:01:55;;;;;;;14.23;3.65;;;;;;;17.99;51.59;101922.84;5093953;28;20051;-60
2022/07/18 03:04:22;;;;;;;12.63;3.85;;;;;;;17.88;51.38;101915.19;5092934;28;20040;-62
2022/07/18 03:06:50;;;;;;;14.45;3.72;;;;;;;17.91;51.10;101920.22;5094048;28;20486;-61
2022/07/18 03:09:16;;;;;;;14.40;4.03;;;;;;;17.89;52.41;101922.22;5094093;28;20048;-62
2022/07/18 03:11:43;;;;;;;9.43;3.33;;;;;;;17.85;52.53;101911.00;5093804;28;20052;-61
2022/07/18 03:14:10;;;;;;;10.50;3.88;;;;;;;17.88;52.71;101910.63;5093564;28;20488;-61
2022/07/18 03:16:37;;;;;;;13.88;3.95;;;;;;;17.84;52.83;101911.97;5093603;28;20485;-60
2022/07/18 03:19:03;;;;;;;11.40;3.72;;;;;;;17.81;52.18;101910.47;5093708;28;20048;-60
2022/07/18 03:21:30;;;;;;;23.30;3.80;;;;;;;17.79;52.40;101903.59;5093874;28;20539;-60
2022/07/18 03:23:57;;;;;;;10.73;3.60;;;;;;;17.74;52.48;101900.63;5093436;28;20098;-60
2022/07/18 03:26:24;;;;;;;11.75;3.22;;;;;;;17.72;52.55;101900.78;5093593;28;20503;-60
2022/07/18 03:28:50;;;;;;;11.43;3.17;;;;;;;17.65;53.14;101897.94;5093614;28;20051;-60
2022/07/18 03:31:17;;;;;;;13.73;3.45;;;;;;;17.68;53.03;101902.13;5093429;28;20048;-60
2022/07/18 03:33:44;;;;;;;9.98;3.35;;;;;;;17.69;53.22;101895.75;5092345;28;20056;-60
2022/07/18 03:36:11;;;;;;;12.45;3.67;;;;;;;17.64;53.28;101892.75;5093462;28;20056;-61
2022/07/18 03:38:42;;;;;;;14.38;3.33;;;;;;;17.65;53.14;101897.13;5093373;28;20048;-61
2022/07/18 03:41:10;;;;;;;16.98;3.30;;;;;;;17.58;53.45;101891.59;5093772;28;20044;-60
2022/07/18 03:43:38;;;;;;;11.60;3.70;;;;;;;17.59;53.58;101889.75;5093206;28;20072;-61
2022/07/18 03:46:05;;;;;;;9.70;3.15;;;;;;;17.60;52.83;101891.44;5093472;28;20071;-60
2022/07/18 03:48:31;;;;;;;22.60;4.03;;;;;;;17.60;53.08;101891.44;5093357;28;20109;-60
2022/07/18 03:50:59;;;;;;;13.07;3.22;;;;;;;17.56;53.04;101895.47;5093272;28;20099;-59
2022/07/18 03:53:26;;;;;;;11.32;3.28;;;;;;;17.61;52.54;101893.94;5093140;28;20498;-59
2022/07/18 03:55:53;;;;;;;10.68;3.70;;;;;;;17.58;52.78;101893.47;5093122;28;20032;-60
2022/07/18 03:58:19;;;;;;;10.38;3.33;;;;;;;17.59;53.44;101895.97;5092969;28;20430;-59
2022/07/18 04:00:46;;;;;;;9.55;3.65;;;;;;;17.63;52.96;101901.81;5093154;28;20048;-59
2022/07/18 04:03:13;;;;;;;10.88;4.05;;;;;;;17.58;53.09;101907.69;5093252;28;20052;-60
2022/07/18 04:05:40;;;;;;;14.07;4.53;;;;;;;17.61;52.89;101910.03;5092532;28;20044;-59
2022/07/18 04:08:06;;;;;;;12.50;3.30;;;;;;;17.61;53.00;101904.69;5093039;28;20068;-59
2022/07/18 04:10:33;;;;;;;13.68;3.95;;;;;;;17.61;52.65;101902.00;5093294;28;20048;-60
2022/07/18 04:13:00;;;;;;;13.20;3.50;;;;;;;17.58;52.89;101896.13;5092529;28;20094;-59
2022/07/18 04:15:27;;;;;;;13.25;3.22;;;;;;;17.59;52.52;101906.69;5094337;28;20400;-60
2022/07/18 04:17:54;;;;;;;12.40;3.70;;;;;;;17.59;52.76;101893.28;5096652;28;20122;-59
2022/07/18 04:20:21;;;;;;;14.38;4.20;;;;;;;17.63;52.66;101899.97;5096944;28;20054;-59
2022/07/18 04:22:50;;;;;;;19.63;4.10;;;;;;;17.67;52.87;101902.31;5096936;28;20070;-59
2022/07/18 04:25:19;;;;;;;11.10;3.28;;;;;;;17.68;52.26;101904.81;5096975;28;20626;-59
2022/07/18 04:27:46;;;;;;;10.57;3.50;;;;;;;17.67;52.05;101900.47;5096543;28;20104;-60
2022/07/18 04:30:15;;;;;;;14.75;3.15;;;;;;;17.72;51.27;101905.28;5096177;28;20040;-60
2022/07/18 04:32:42;;;;;;;13.25;3.13;;;;;;;17.74;51.21;101892.56;5096379;28;20056;-60
2022/07/18 04:35:11;;;;;;;11.52;2.70;;;;;;;17.72;51.44;101900.78;5096773;28;20059;-60
2022/07/18 04:37:39;;;;;;;10.35;2.95;;;;;;;17.77;50.69;101898.44;5096701;28;20052;-60
2022/07/18 04:40:07;;;;;;;11.63;3.25;;;;;;;17.83;50.98;101897.72;5095426;28;20101;-60
2022/07/18 04:42:35;;;;;;;12.05;2.75;;;;;;;17.79;51.14;101898.22;5096527;28;20047;-59
2022/07/18 04:45:04;;;;;;;19.08;3.30;;;;;;;17.81;50.59;101901.59;5096485;28;20044;-60
2022/07/18 04:47:31;;;;;;;7.68;2.80;;;;;;;17.79;50.53;101896.41;5096427;28;20056;-61
2022/07/18 04:49:58;;;;;;;8.63;2.70;;;;;;;17.87;50.52;101895.56;5096030;28;20040;-60
2022/07/18 04:52:25;;;;;;;11.02;2.78;;;;;;;17.90;51.08;101897.91;5096085;28;20044;-60
2022/07/18 04:54:51;;;;;;;11.75;2.85;;;;;;;17.92;50.95;101892.34;5096225;28;20054;-60
2022/07/18 04:57:18;;;;;;;13.88;2.67;;;;;;;17.92;51.03;101886.97;5096043;28;20039;-61
2022/07/18 04:59:45;;;;;;;9.25;3.00;;;;;;;17.94;50.59;101885.81;5096129;28;20071;-60
2022/07/18 05:02:12;;;;;;;11.63;2.70;;;;;;;17.96;50.85;101886.47;5095901;28;20048;-60
2022/07/18 05:04:39;;;;;;;8.68;2.58;;;;;;;18.01;50.88;101881.41;5095108;28;20497;-61
2022/07/18 05:07:06;;;;;;;12.10;2.60;;;;;;;18.02;51.35;101884.91;5096144;28;20051;-60
2022/07/18 05:09:33;;;;;;;12.27;2.92;;;;;;;18.01;50.75;101885.94;5096091;28;20559;-61
2022/07/18 05:12:01;;;;;;;10.48;2.90;;;;;;;18.09;50.19;101880.53;5095764;28;20448;-59
2022/07/18 05:14:28;;;;;;;8.57;2.60;;;;;;;18.13;49.39;101881.81;5095771;28;20044;-61
2022/07/18 05:16:54;;;;;;;12.05;2.67;;;;;;;18.19;49.09;101885.66;5095566;28;20040;-60
2022/07/18 05:19:21;;;;;;;10.63;2.85;;;;;;;18.26;49.00;101886.63;5095860;28;20078;-61
2022/07/18 05:21:48;;;;;;;13.30;3.28;;;;;;;18.23;48.58;101882.44;5094724;28;20098;-60
2022/07/18 05:24:14;;;;;;;16.75;2.88;;;;;;;18.29;47.94;101875.53;5095782;28;20071;-60
2022/07/18 05:26:42;;;;;;;8.65;2.50;;;;;;;18.36;48.75;101876.50;5095362;28;20040;-60
2022/07/18 05:29:09;;;;;;;13.15;2.63;;;;;;;18.47;47.45;101877.13;5095597;28;20052;-59
2022/07/18 05:31:35;;;;;;;10.05;2.65;;;;;;;18.50;48.10;101882.97;5094410;28;20482;-61
2022/07/18 05:34:02;;;;;;;10.63;2.83;;;;;;;18.53;47.80;101879.06;5095478;28;20122;-61
2022/07/18 05:36:29;;;;;;;9.95;2.50;;;;;;;18.56;47.51;101879.56;5095456;28;20044;-61
2022/07/18 05:38:57;;;;;;;12.38;3.53;;;;;;;18.67;46.38;101875.59;5095530;28;20052;-60
2022/07/18 05:41:23;;;;;;;17.08;3.85;;;;;;;18.72;47.16;101877.75;5095354;28;20051;-60
2022/07/18 05:43:50;;;;;;;7.63;2.47;;;;;;;18.75;46.62;101872.84;5095221;28;20145;-61
2022/07/18 05:46:17;;;;;;;10.25;2.92;;;;;;;18.79;46.00;101873.31;5095229;28;20048;-61
2022/07/18 05:48:44;;;;;;;13.48;2.70;;;;;;;18.83;46.33;101877.38;5095350;28;20084;-60
2022/07/18 05:51:11;;;;;;;8.32;2.65;;;;;;;18.86;45.96;101868.09;5095204;28;20055;-61
2022/07/18 05:53:37;;;;;;;8.38;2.90;;;;;;;18.93;45.80;101877.09;5094833;28;20056;-60
2022/07/18 05:56:05;;;;;;;11.73;3.42;;;;;;;18.97;45.71;101878.41;5095114;28;20052;-60
2022/07/18 05:58:32;;;;;;;12.43;2.60;;;;;;;19.02;45.49;101876.00;5095020;28;20032;-60
2022/07/18 06:00:58;;;;;;;9.85;3.13;;;;;;;19.09;44.85;101868.88;5094712;28;20044;-60
2022/07/18 06:03:25;;;;;;;11.20;2.85;;;;;;;19.12;44.71;101865.00;5094066;28;20447;-61
2022/07/18 06:05:52;;;;;;;7.57;2.45;;;;;;;19.18;44.55;101875.84;5093713;28;20046;-59
2022/07/18 06:08:23;;;;;;;10.95;2.97;;;;;;;19.26;45.30;101879.47;5089767;28;20036;-60
2022/07/18 06:10:50;;;;;;;11.10;3.20;;;;;;;19.32;44.79;101868.81;5074473;28;20042;-60
2022/07/18 06:13:17;;;;;;;7.65;2.45;;;;;;;19.37;44.72;101874.50;5074002;28;20127;-60
2022/07/18 06:15:44;;;;;;;10.60;2.60;;;;;;;19.43;44.60;101869.38;5074487;28;20048;-59
2022/07/18 06:18:10;;;;;;;15.40;3.97;;;;;;;19.42;44.82;101865.03;5074179;28;20040;-60
2022/07/18 06:20:37;;;;;;;10.07;2.42;;;;;;;19.47;45.06;101865.31;5074311;28;20052;-60
2022/07/18 06:23:04;;;;;;;8.38;2.50;;;;;;;19.51;45.12;101866.59;5072972;28;20045;-59
2022/07/18 06:25:30;;;;;;;9.35;3.00;;;;;;;19.67;44.01;101865.56;5074289;28;20125;-59
2022/07/18 06:27:57;;;;;;;11.50;2.88;;;;;;;19.66;44.23;101867.41;5074027;28;20557;-59
2022/07/18 06:30:24;;;;;;;10.07;3.70;;;;;;;19.73;44.94;101862.97;5074130;28;20512;-59
2022/07/18 06:32:51;;;;;;;10.77;2.47;;;;;;;19.75;44.85;101863.66;5073505;28;20142;-59
2022/07/18 06:35:18;;;;;;;9.80;2.88;;;;;;;19.79;44.84;101860.56;5073358;28;20083;-60
2022/07/18 06:37:45;;;;;;;7.97;2.30;;;;;;;19.86;44.61;101858.78;5073157;28;20370;-60
2022/07/18 06:40:13;;;;;;;11.52;2.85;;;;;;;19.88;44.92;101854.91;5073999;28;20071;-60
2022/07/18 06:42:39;;;;;;;11.93;2.63;;;;;;;20.03;45.05;101849.47;5073940;28;20513;-60
2022/07/18 06:45:07;;;;;;;9.82;2.83;;;;;;;20.05;46.06;101844.72;5090741;28;20119;-60
2022/07/18 06:47:37;;;;;;;12.50;2.70;;;;;;;20.04;45.54;101847.59;5093914;28;20040;-60
2022/07/18 06:50:04;;;;;;;14.00;3.00;;;;;;;20.18;44.81;101849.44;5093683;28;20094;-59
2022/07/18 06:52:31;;;;;;;8.02;2.50;;;;;;;20.35;43.02;101849.19;5093893;28;20044;-58
2022/07/18 06:54:57;;;;;;;12.60;2.53;;;;;;;20.40;43.00;101846.75;5093872;28;20105;-58
2022/07/18 06:57:24;;;;;;;11.18;2.78;;;;;;;20.41;43.31;101856.50;5093866;28;20040;-60
2022/07/18 06:59:51;;;;;;;10.57;2.60;;;;;;;20.45;43.34;101852.41;5093690;28;20090;-59
2022/07/18 07:02:20;;;;;;;8.20;2.60;;;;;;;20.49;42.90;101859.06;5093840;28;20044;-60
2022/07/18 07:04:47;;;;;;;13.55;3.50;;;;;;;20.52;43.23;101851.44;5092886;28;20086;-60
2022/07/18 07:07:13;;;;;;;10.38;2.63;;;;;;;20.69;42.22;101857.41;5093799;28;20044;-58
2022/07/18 07:09:40;;;;;;;9.77;2.63;;;;;;;20.66;42.87;101857.78;5083220;28;20041;-60
2022/07/18 07:12:07;;;;;;;11.68;2.88;;;;;;;20.71;42.09;101851.84;5093370;28;20068;-60
2022/07/18 07:14:34;;;;;;;13.00;3.55;;;;;;;20.73;42.92;101851.63;5089968;28;20076;-59
2022/07/18 07:17:00;;;;;;;9.68;2.67;;;;;;;20.83;42.38;101854.81;5093253;28;20040;-59
2022/07/18 07:19:27;;;;;;;13.18;3.05;;;;;;;20.84;42.13;101846.53;5093495;28;20440;-60
2022/07/18 07:21:54;;;;;;;11.18;2.72;;;;;;;20.98;43.31;101846.66;5093574;28;20044;-59
2022/07/18 07:24:20;;;;;;;10.55;2.75;;;;;;;21.14;42.20;101849.06;5084699;28;20090;-60
2022/07/18 07:26:47;;;;;;;16.48;4.45;;;;;;;21.17;41.36;101835.16;5088622;28;20063;-59
2022/07/18 07:29:17;;;;;;;14.35;2.90;;;;;;;21.22;41.36;101838.09;5077200;28;20044;-60
2022/07/18 07:31:44;;;;;;;10.05;2.53;;;;;;;21.35;40.93;101841.91;5073512;28;20036;-58
2022/07/18 07:34:11;;;;;;;14.63;2.92;;;;;;;21.41;40.90;101833.00;5083383;28;20047;-59
2022/07/18 07:36:38;;;;;;;15.65;2.60;;;;;;;21.56;40.34;101835.63;5072841;28;20047;-59
2022/07/18 07:39:06;;;;;;;8.60;2.30;;;;;;;21.59;40.78;101836.06;5072386;28;20047;-60
2022/07/18 07:41:34;;;;;;;10.85;2.92;;;;;;;21.56;40.52;101839.16;5073246;28;20068;-59
2022/07/18 07:44:01;;;;;;;8.90;2.50;;;;;;;21.71;40.43;101839.00;5081418;28;20052;-60
2022/07/18 07:46:28;;;;;;;9.18;2.67;;;;;;;21.73;40.22;101831.53;5078333;28;20050;-58
2022/07/18 07:48:56;;;;;;;11.77;2.90;;;;;;;21.81;40.04;101833.22;5073895;28;20479;-60
2022/07/18 07:51:23;;;;;;;16.25;2.60;;;;;;;21.83;40.12;101826.59;5076279;28;20079;-60
2022/07/18 07:53:51;;;;;;;11.10;3.25;;;;;;;21.90;40.78;101825.75;5078600;28;20379;-60
2022/07/18 07:56:19;;;;;;;14.52;3.22;;;;;;;21.95;40.39;101826.81;5077325;28;20151;-59
2022/07/18 07:58:48;;;;;;;12.38;2.47;;;;;;;22.09;39.98;101827.69;5077135;28;20078;-60
2022/07/18 08:01:17;;;;;;;8.02;2.60;;;;;;;22.20;39.71;101816.28;5075802;28;20055;-60
2022/07/18 08:03:46;;;;;;;14.60;2.83;;;;;;;22.20;39.82;101813.56;5080809;28;20036;-59
2022/07/18 08:06:12;;;;;;;19.50;6.20;;;;;;;22.32;40.21;101826.50;5091269;28;20499;-60
2022/07/18 08:08:41;;;;;;;12.73;2.97;;;;;;;22.41;39.31;101809.06;5087403;28;20035;-60
2022/07/18 08:11:09;;;;;;;16.73;2.60;;;;;;;22.55;39.07;101815.31;5096810;28;20058;-60
2022/07/18 08:13:37;;;;;;;14.63;2.42;;;;;;;22.61;39.66;101823.44;5096414;28;20388;-61
2022/07/18 08:16:04;;;;;;;15.95;3.10;;;;;;;22.74;39.44;101816.31;5095566;28;20074;-60
2022/07/18 08:18:31;;;;;;;13.75;2.67;;;;;;;22.89;38.48;101816.94;5096687;28;20035;-61
2022/07/18 08:20:58;;;;;;;22.15;3.03;;;;;;;23.04;38.27;101824.00;5096981;28;20439;-61
2022/07/18 08:23:25;;;;;;;11.85;2.58;;;;;;;23.18;38.32;101828.38;5097478;28;20051;-61
2022/07/18 08:25:53;;;;;;;10.52;3.28;;;;;;;23.29;37.61;101825.03;5095809;28;20056;-60
2022/07/18 08:28:19;;;;;;;11.50;2.30;;;;;;;23.30;38.09;101824.00;5096708;28;20047;-60
2022/07/18 08:30:46;;;;;;;16.20;3.10;;;;;;;23.58;37.44;101818.25;5091717;28;20061;-60
2022/07/18 08:33:14;;;;;;;14.50;2.75;;;;;;;23.52;37.84;101807.44;5095180;28;20084;-60
2022/07/18 08:35:41;;;;;;;13.68;11.05;;;;;;;23.71;37.01;101803.81;5096860;28;20093;-60
2022/07/18 08:38:07;;;;;;;12.40;2.72;;;;;;;23.81;36.77;101808.78;5094406;28;20048;-61
2022/07/18 08:40:37;;;;;;;13.25;2.60;;;;;;;23.92;36.47;101805.41;5095604;28;20497;-60
2022/07/18 08:43:06;;;;;;;19.40;3.75;;;;;;;23.97;37.38;101809.34;5095318;28;20074;-61
2022/07/18 08:45:46;;;;;;;11.45;3.70;;;;;;;24.06;37.04;101808.88;5095842;28;20048;-60
2022/07/18 08:48:16;;;;;;;11.93;2.70;;;;;;;24.19;36.71;101804.41;5095890;28;20044;-60
2022/07/18 08:50:46;;;;;;;12.30;2.70;;;;;;;24.30;36.11;101792.84;5095840;28;20431;-59
2022/07/18 08:53:17;;;;;;;15.25;2.83;;;;;;;24.51;36.28;101792.47;5079353;28;20060;-60
2022/07/18 08:55:44;;;;;;;15.45;2.63;;;;;;;24.68;35.13;101792.75;5074423;28;20055;-60
2022/07/18 08:58:12;;;;;;;11.60;2.25;;;;;;;24.94;35.51;101801.72;5075885;28;20098;-61
2022/07/18 09:00:53;;;;;;;16.17;2.60;;;;;;;25.05;34.86;101802.84;5075276;28;20398;-60
2022/07/18 09:03:21;;;;;;;15.60;2.97;;;;;;;25.19;34.56;101801.66;5074925;28;20041;-62
2022/07/18 09:06:02;;;;;;;10.80;3.00;;;;;;;25.32;34.90;101797.97;5075365;28;20045;-61
2022/07/18 09:08:29;;;;;;;16.25;2.67;;;;;;;25.60;34.22;101805.59;5076534;28;20070;-62
2022/07/18 09:10:58;;;;;;;13.02;2.90;;;;;;;25.84;33.60;101808.41;5095217;28;20063;-59
2022/07/18 09:13:37;;;;;;;15.32;3.05;;;;;;;25.92;33.31;101812.69;5086043;28;20062;-61
2022/07/18 09:16:09;;;;;;;11.30;2.78;;;;;;;25.94;32.84;101808.72;5077174;28;20043;-61
2022/07/18 09:18:47;;;;;;;12.07;2.70;;;;;;;26.08;33.14;101811.22;5079264;28;20056;-59
2022/07/18 09:21:18;;;;;;;10.73;2.70;;;;;;;26.17;32.48;101796.25;5075357;28;20037;-59
2022/07/18 09:23:49;;;;;;;19.47;3.00;;;;;;;26.27;33.20;101801.94;5076080;28;20127;-59
2022/07/18 09:29:16;;;;;;;15.05;2.60;;;;;;;26.69;30.98;101812.78;5093017;27;20426;-59
2022/07/18 09:31:52;;;;;;;12.68;2.85;;;;;;;26.57;31.00;101806.47;5091979;28;20041;-58
2022/07/18 09:34:36;;;;;;;12.02;3.03;;;;;;;26.66;32.99;101805.09;5088817;28;20077;-59
2022/07/18 09:37:03;;;;;;;14.82;2.60;;;;;;;26.96;29.57;101807.69;5090897;28;20045;-58
2022/07/18 09:39:30;;;;;;;16.00;2.85;;;;;;;26.96;30.90;101804.13;5091012;28;20058;-59
2022/07/18 09:42:18;;;;;;;16.20;2.78;;;;;;;27.27;30.39;101811.13;5090691;28;20054;-60
2022/07/18 09:44:58;;;;;;;14.57;2.75;;;;;;;27.23;29.57;101815.34;5103496;28;20375;-58
2022/07/18 09:47:25;;;;;;;14.80;2.60;;;;;;;27.35;29.46;101802.56;5110917;28;20044;-59
2022/07/18 09:49:52;;;;;;;10.57;2.97;;;;;;;27.51;28.82;101803.69;5111119;28;20040;-58
2022/07/18 09:52:19;;;;;;;20.73;2.95;;;;;;;27.69;30.24;101796.41;5110807;28;20048;-58
2022/07/18 09:54:46;;;;;;;9.93;2.15;;;;;;;27.71;28.69;101789.66;5107715;28;20089;-59
2022/07/18 09:57:27;;;;;;;15.75;2.78;;;;;;;28.03;29.52;101783.69;5096731;28;20040;-58
2022/07/18 09:59:55;;;;;;;14.00;2.80;;;;;;;28.14;27.88;101784.69;5089926;28;20066;-58
2022/07/18 10:02:22;;;;;;;11.73;2.75;;;;;;;28.27;27.48;101786.28;5090241;28;20451;-58
2022/07/18 10:04:49;;;;;;;17.77;3.00;;;;;;;28.42;27.66;101777.53;5089497;28;20040;-59
2022/07/18 10:07:16;;;;;;;11.65;2.70;;;;;;;28.68;27.29;101778.75;5090138;28;20040;-59
2022/07/18 10:09:44;;;;;;;16.25;2.90;;;;;;;28.89;27.56;101777.16;5090208;28;20462;-58
2022/07/18 10:12:14;;;;;;;9.05;2.28;;;;;;;28.93;25.54;101781.03;5090046;28;20040;-58
2022/07/18 10:14:41;;;;;;;17.73;2.90;;;;;;;29.08;27.17;101781.22;5090046;28;20456;-58
2022/07/18 10:17:09;;;;;;;17.50;3.42;;;;;;;29.17;27.25;101781.63;5090048;28;20048;-58
2022/07/18 10:19:36;;;;;;;15.45;2.55;;;;;;;29.41;25.13;101778.66;5089960;28;20044;-58
2022/07/18 10:22:05;;;;;;;9.57;2.70;;;;;;;29.31;25.24;101787.56;5090051;28;20045;-59
2022/07/18 10:24:33;;;;;;;6.60;2.10;;;;;;;29.34;24.04;101786.22;5105427;28;20044;-58
2022/07/18 10:27:18;;;;;;;7.85;2.25;;;;;;;29.55;24.79;101790.00;5089534;28;20044;-58
2022/07/18 10:32:43;;;;;;;12.40;2.42;;;;;;;29.86;24.49;101792.00;5110910;27;20734;-58
2022/07/18 10:35:15;;;;;;;11.55;3.10;;;;;;;30.27;22.93;101788.81;5111266;28;20047;-59
2022/07/18 10:37:42;;;;;;;11.38;2.47;;;;;;;29.90;22.43;101791.50;5110180;28;20047;-59
2022/07/18 10:40:28;;;;;;;13.75;2.45;;;;;;;30.00;22.96;101789.69;5111254;28;20071;-59
2022/07/18 10:43:32;;;;;;;11.73;2.45;;;;;;;30.17;22.21;101784.06;5110983;28;20115;-59
2022/07/18 10:46:01;;;;;;;8.88;2.47;;;;;;;30.39;22.38;101788.66;5090747;28;20048;-59
2022/07/18 10:51:12;;;;;;;11.80;2.58;;;;;;;30.49;22.15;101786.00;5070574;28;20699;-60
2022/07/18 10:59:17;;;;;;;15.90;2.45;;;;;;;30.41;22.10;101776.34;5090873;28;20679;-59
2022/07/18 11:01:49;;;;;;;10.73;2.42;;;;;;;30.57;21.85;101780.03;5090620;28;20537;-59
2022/07/18 11:04:37;;;;;;;9.95;2.83;;;;;;;30.62;22.29;101774.59;5090206;28;20041;-59
2022/07/18 11:07:09;;;;;;;11.13;2.75;;;;;;;30.81;23.59;101771.41;5090524;28;20106;-59
2022/07/18 11:09:43;;;;;;;9.68;2.78;;;;;;;31.08;22.21;101778.69;5091028;28;20045;-59
2022/07/18 11:12:28;;;;;;;20.45;2.97;;;;;;;31.32;21.26;101776.31;5090328;28;20401;-63
2022/07/18 11:17:59;;;;;;;14.35;3.03;;;;;;;31.39;21.98;101768.66;5111160;27;20387;-59
2022/07/18 11:20:37;;;;;;;10.38;2.85;;;;;;;31.38;22.00;101770.59;5110883;28;20048;-59
2022/07/18 11:23:14;;;;;;;9.43;2.63;;;;;;;31.56;22.12;101768.44;5105721;28;20052;-59
2022/07/18 11:25:41;;;;;;;9.80;2.67;;;;;;;31.63;21.17;101762.72;5090203;28;20094;-60
2022/07/18 11:28:21;;;;;;;17.73;6.90;;;;;;;31.79;21.23;101763.56;5101042;28;20512;-59
2022/07/18 11:31:09;;;;;;;9.50;3.10;;;;;;;31.55;20.85;101758.59;5109986;28;20048;-60
2022/07/18 11:33:40;;;;;;;10.48;2.90;;;;;;;31.29;21.86;101752.19;5110434;28;20089;-59
2022/07/18 11:36:16;;;;;;;9.93;2.95;;;;;;;31.65;21.59;101750.38;5110494;28;20036;-58
2022/07/18 11:38:52;;;;;;;15.57;3.20;;;;;;;31.60;21.93;101753.13;5110936;28;20048;-59
2022/07/18 11:41:20;;;;;;;11.95;3.05;;;;;;;31.47;21.67;101750.84;5110655;28;20497;-61
2022/07/18 11:43:53;;;;;;;9.23;2.70;;;;;;;31.33;22.79;101740.41;5110704;28;20043;-60
2022/07/18 11:46:24;;;;;;;11.07;2.85;;;;;;;31.37;21.83;101738.78;5110426;28;20385;-58